Terminal Aerodrome Forecast
Issued by NWS

Home | Current Version | Previous Version | Text Only | Print | Product List | Glossary On
Versions: 1 2 3 4 5 6 7 8 9 10 11 12 13 14 15 16 17 18 19
000
FTUS41 KGYX 242320
TAFHIE
TAF
KHIE 242320Z 2500/2524 24005KT P6SM SCT100 BKN250
      TEMPO 2500/2504 BKN100
     FM250400 00000KT P6SM FEW100 BKN200
     FM251500 27008KT P6SM SCT060 BKN100
     FM251700 25005KT P6SM -SHRA BKN050 OVC080
     FM252000 VRB03KT P6SM -SHRA BKN025 OVC040=

USA.gov is the U.S. government's official web portal to all federal, state and local government web resources and services.